Time;durP1;ratioP1;P1;durP2;ratioP2;P2;SDS_P1;SDS_P2;PMS_P1;PMS_P2;Temp;Humidity;BMP_temperature;BMP_pressure;BME280_temperature;BME280_humidity;BME280_pressure;Samples;Min_cycle;Max_cycle;Signal;HPM_P1;HPM_P2
2024/04/05 00:00:53;;;;;;;22.73;1.05;;;11.90;99.90;;;;;;5094680;28;20016;-76
2024/04/05 00:03:19;;;;;;;15.85;2.20;;;12.00;99.90;;;;;;5094483;28;20425;-76
2024/04/05 00:05:44;;;;;;;20.63;2.78;;;11.90;99.90;;;;;;5094667;28;20039;-76
2024/04/05 00:08:10;;;;;;;19.13;1.77;;;11.90;99.90;;;;;;5093230;28;20020;-76
2024/04/05 00:10:35;;;;;;;25.17;2.25;;;11.90;99.90;;;;;;5093274;28;20100;-76
2024/04/05 00:13:01;;;;;;;13.38;2.15;;;11.90;99.90;;;;;;5094753;28;20031;-76
2024/04/05 00:15:27;;;;;;;17.23;1.90;;;11.90;99.90;;;;;;5092312;28;20448;-76
2024/04/05 00:17:53;;;;;;;19.65;2.42;;;11.80;99.90;;;;;;5094377;28;20020;-76
2024/04/05 00:20:18;;;;;;;20.00;1.08;;;11.70;99.90;;;;;;5094565;28;20024;-76
2024/04/05 00:22:44;;;;;;;18.95;1.45;;;11.80;99.90;;;;;;5093293;28;20110;-76
2024/04/05 00:25:09;;;;;;;14.85;1.58;;;11.80;99.90;;;;;;5094279;28;20031;-76
2024/04/05 00:27:35;;;;;;;24.20;1.92;;;11.80;99.90;;;;;;5095100;28;20035;-76
2024/04/05 00:30:01;;;;;;;23.65;0.90;;;11.80;99.90;;;;;;5093042;28;20024;-76
2024/04/05 00:32:26;;;;;;;21.08;3.05;;;11.80;99.90;;;;;;5093097;28;20024;-76
2024/04/05 00:34:52;;;;;;;15.27;2.25;;;11.80;99.90;;;;;;5092642;28;20032;-76
2024/04/05 00:37:18;;;;;;;18.65;1.23;;;11.80;99.90;;;;;;5094058;28;20020;-76
2024/04/05 00:39:43;;;;;;;13.88;1.05;;;11.70;99.90;;;;;;5092933;28;20016;-76
2024/04/05 00:42:09;;;;;;;12.85;0.70;;;11.80;99.90;;;;;;5093936;28;20085;-76
2024/04/05 00:44:35;;;;;;;19.30;1.63;;;11.90;99.90;;;;;;5092589;28;20024;-76
2024/04/05 00:47:01;;;;;;;15.05;0.95;;;12.00;99.90;;;;;;5094038;28;20020;-76
2024/04/05 00:49:29;;;;;;;21.63;2.65;;;11.90;99.90;;;;;;5093842;28;20068;-76
2024/04/05 00:51:56;;;;;;;20.17;1.90;;;11.90;99.90;;;;;;5092572;28;20094;-76
2024/04/05 00:54:23;;;;;;;16.05;1.98;;;11.80;99.90;;;;;;5092430;28;20035;-76
2024/04/05 00:56:48;;;;;;;15.40;0.40;;;11.80;99.90;;;;;;5093812;28;20095;-76
2024/04/05 00:59:15;;;;;;;23.17;1.67;;;11.70;99.90;;;;;;5092468;28;20508;-76
2024/04/05 01:01:41;;;;;;;13.13;0.68;;;11.70;99.90;;;;;;5092749;28;20059;-76
2024/04/05 01:04:07;;;;;;;19.83;2.75;;;12.70;99.90;;;;;;5094545;28;20481;-76
2024/04/05 01:06:33;;;;;;;11.88;1.02;;;11.80;99.90;;;;;;5093778;28;20020;-76
2024/04/05 01:08:59;;;;;;;8.32;0.88;;;11.80;99.90;;;;;;5092774;28;20028;-76
2024/04/05 01:11:25;;;;;;;15.10;0.88;;;11.70;99.90;;;;;;5092203;28;20027;-76
2024/04/05 01:13:52;;;;;;;8.38;0.60;;;11.80;99.90;;;;;;5092000;28;20039;-76
2024/04/05 01:16:18;;;;;;;15.15;1.30;;;11.80;99.90;;;;;;5093479;28;20069;-76
2024/04/05 01:18:44;;;;;;;8.13;0.50;;;11.80;99.90;;;;;;5092179;28;20032;-76
2024/04/05 01:21:10;;;;;;;10.40;1.65;;;11.90;99.90;;;;;;5093487;28;20103;-76
2024/04/05 01:23:44;;;;;;;19.52;0.50;;;11.90;99.90;;;;;;5093213;28;20024;-76
2024/04/05 01:26:10;;;;;;;14.55;1.38;;;11.90;99.90;;;;;;5093272;28;20024;-76
2024/04/05 01:28:36;;;;;;;15.73;0.73;;;11.90;99.90;;;;;;5093383;28;20361;-76
2024/04/05 01:31:02;;;;;;;17.13;1.55;;;11.90;99.90;;;;;;5092362;28;20069;-76
2024/04/05 01:33:27;;;;;;;12.57;1.00;;;11.90;99.90;;;;;;5092020;28;20443;-76
2024/04/05 01:35:53;;;;;;;20.55;1.75;;;11.90;99.90;;;;;;5093744;28;20459;-76
2024/04/05 01:38:19;;;;;;;12.23;0.90;;;11.90;99.90;;;;;;5093352;28;20022;-76
2024/04/05 01:40:45;;;;;;;15.52;0.98;;;11.90;99.90;;;;;;5091887;28;20023;-76
2024/04/05 01:43:11;;;;;;;11.48;2.63;;;11.80;99.90;;;;;;5091891;28;20422;-76
2024/04/05 01:45:36;;;;;;;16.67;1.33;;;11.90;99.90;;;;;;5091989;28;20150;-76
2024/04/05 01:48:02;;;;;;;11.35;0.88;;;11.90;99.90;;;;;;5093099;28;20036;-76
2024/04/05 01:50:28;;;;;;;16.30;0.88;;;11.90;99.90;;;;;;5091887;28;20020;-76
2024/04/05 01:52:53;;;;;;;32.35;1.52;;;11.90;99.90;;;;;;5091991;28;20023;-76
2024/04/05 01:55:19;;;;;;;17.17;1.80;;;;;;;;;;5074804;22;20049;-90
2024/04/05 01:57:45;;;;;;;16.15;1.38;;;;;;;;;;5064145;28;20022;-88
2024/04/05 02:00:12;;;;;;;14.05;2.38;;;;;;;;;;5075867;28;20031;-88
2024/04/05 02:02:38;;;;;;;18.55;2.47;;;;;;;;;;5076738;28;20024;-88
2024/04/05 02:05:04;;;;;;;12.50;1.05;;;11.90;99.90;;;;;;5074341;28;20032;-88
2024/04/05 02:07:29;;;;;;;14.10;1.33;;;11.90;99.90;;;;;;5075341;28;20392;-88
2024/04/05 02:09:55;;;;;;;19.77;1.23;;;11.90;99.90;;;;;;5074901;28;20034;-88
2024/04/05 02:12:22;;;;;;;15.25;1.05;;;11.90;99.90;;;;;;5075436;28;20024;-88
2024/04/05 02:14:48;;;;;;;18.58;1.98;;;11.90;99.90;;;;;;5077450;28;20059;-88
2024/04/05 02:17:14;;;;;;;18.52;1.88;;;11.80;99.90;;;;;;5092230;28;20027;-89
2024/04/05 02:19:45;;;;;;;13.60;1.17;;;12.60;99.90;;;;;;5096341;28;20021;-89
2024/04/05 02:22:10;;;;;;;23.85;1.33;;;11.80;99.90;;;;;;5095832;28;20055;-88
2024/04/05 02:24:36;;;;;;;16.00;0.95;;;;;;;;;;5079118;28;20460;-89
2024/04/05 02:27:02;;;;;;;14.90;0.95;;;;;;;;;;5074970;28;20407;-88
2024/04/05 02:29:29;;;;;;;15.38;1.08;;;;;;;;;;5074527;28;20021;-87
2024/04/05 02:31:55;;;;;;;14.45;0.80;;;;;;;;;;5076957;28;20032;-87
2024/04/05 02:34:21;;;;;;;15.73;1.05;;;;;;;;;;5074893;28;20195;-88
2024/04/05 02:36:51;;;;;;;18.85;1.45;;;11.80;99.90;;;;;;5075084;28;20036;-88
2024/04/05 02:39:17;;;;;;;14.52;1.55;;;;;;;;;;5077373;28;20031;-87
2024/04/05 02:41:47;;;;;;;18.80;1.10;;;11.80;99.90;;;;;;5081290;28;20029;-87
2024/04/05 02:44:13;;;;;;;18.02;1.35;;;11.90;99.90;;;;;;5078828;28;20017;-88
2024/04/05 02:46:39;;;;;;;13.45;1.27;;;11.90;99.90;;;;;;5078302;28;20016;-88
2024/04/05 02:49:05;;;;;;;20.25;2.53;;;11.80;99.90;;;;;;5078408;28;20384;-88
2024/04/05 02:51:31;;;;;;;14.15;1.17;;;11.80;99.90;;;;;;5078169;28;20021;-88
2024/04/05 02:53:57;;;;;;;17.25;1.73;;;11.80;99.90;;;;;;5079251;28;20020;-89
2024/04/05 02:56:23;;;;;;;14.23;2.22;;;;;;;;;;5077567;28;20047;-88
2024/04/05 02:58:49;;;;;;;22.23;2.22;;;;;;;;;;5079591;28;20029;-88
2024/04/05 03:01:15;;;;;;;22.20;2.75;;;;;;;;;;5078664;28;20116;-89
2024/04/05 03:03:40;;;;;;;12.98;1.33;;;11.80;99.90;;;;;;5078006;28;20031;-88
2024/04/05 03:06:06;;;;;;;13.30;1.27;;;11.80;99.90;;;;;;5079026;28;20032;-88
2024/04/05 03:08:32;;;;;;;25.02;2.28;;;11.70;99.90;;;;;;5078295;28;20044;-88
2024/04/05 03:10:58;;;;;;;21.70;2.60;;;;;;;;;;5078823;28;20067;-87
2024/04/05 03:13:24;;;;;;;20.33;1.73;;;;;;;;;;5078538;28;20086;-87
2024/04/05 03:15:50;;;;;;;12.57;1.50;;;11.70;99.90;;;;;;5078517;28;20031;-87
2024/04/05 03:18:16;;;;;;;17.95;1.83;;;;;;;;;;5078039;28;20021;-87
2024/04/05 03:20:43;;;;;;;12.52;1.92;;;11.60;99.90;;;;;;5077019;28;20063;-89
2024/04/05 03:23:10;;;;;;;13.98;1.27;;;11.60;99.90;;;;;;5076355;28;20043;-92
2024/04/05 03:25:39;;;;;;;13.82;1.45;;;11.60;99.90;;;;;;5076773;28;20013;-90
2024/04/05 03:28:05;;;;;;;16.35;1.63;;;11.60;99.90;;;;;;5076797;28;20480;-87
2024/04/05 03:30:30;;;;;;;11.07;0.85;;;11.60;99.90;;;;;;5077052;28;20079;-90
2024/04/05 03:32:56;;;;;;;15.95;1.90;;;11.60;99.90;;;;;;5079822;28;20033;-89
2024/04/05 03:35:22;;;;;;;10.98;0.50;;;11.60;99.90;;;;;;5079047;28;20031;-89
2024/04/05 03:37:54;;;;;;;18.20;2.08;;;11.50;99.90;;;;;;5077963;28;20087;-90
2024/04/05 03:40:21;;;;;;;9.75;0.80;;;;;;;;;;5078276;28;20025;-89
2024/04/05 03:42:48;;;;;;;11.00;0.90;;;11.50;99.90;;;;;;5076330;28;20070;-89
2024/04/05 03:45:14;;;;;;;21.85;2.70;;;;;;;;;;5075027;28;20058;-90
2024/04/05 03:47:40;;;;;;;15.60;1.60;;;;;;;;;;5074996;28;20058;-89
2024/04/05 03:50:06;;;;;;;13.75;1.08;;;11.50;99.90;;;;;;5074811;28;20088;-89
2024/04/05 03:52:31;;;;;;;12.88;1.13;;;11.50;99.90;;;;;;5074657;28;20059;-90
2024/04/05 03:54:57;;;;;;;15.27;1.30;;;11.50;99.90;;;;;;5074347;28;20537;-88
2024/04/05 03:57:22;;;;;;;15.27;1.38;;;11.50;99.90;;;;;;5074453;28;20077;-89
2024/04/05 03:59:48;;;;;;;17.25;1.27;;;11.40;99.90;;;;;;5074599;28;20021;-89
2024/04/05 04:02:14;;;;;;;10.57;1.00;;;11.40;99.90;;;;;;5074693;28;20020;-89
2024/04/05 04:04:40;;;;;;;16.95;2.22;;;;;;;;;;5074430;28;20170;-88
2024/04/05 04:07:06;;;;;;;19.42;2.42;;;11.40;99.90;;;;;;5074258;28;20068;-89
2024/04/05 04:09:32;;;;;;;17.85;2.08;;;12.00;99.90;;;;;;5074305;28;20027;-90
2024/04/05 04:11:57;;;;;;;12.52;1.70;;;11.80;99.90;;;;;;5074537;28;20031;-89
2024/04/05 04:14:23;;;;;;;15.52;1.35;;;12.10;99.90;;;;;;5074655;28;20029;-88
2024/04/05 04:16:52;;;;;;;16.15;1.98;;;11.50;99.90;;;;;;5074469;28;20088;-90
2024/04/05 04:19:18;;;;;;;16.05;1.33;;;11.40;99.90;;;;;;5079918;28;20055;-89
2024/04/05 04:21:43;;;;;;;13.43;1.13;;;11.50;99.90;;;;;;5095089;28;20012;-90
2024/04/05 04:24:09;;;;;;;14.25;1.20;;;11.50;99.90;;;;;;5097938;28;20084;-89
2024/04/05 04:26:36;;;;;;;17.02;1.33;;;11.40;99.90;;;;;;5097544;28;20029;-89
2024/04/05 04:29:03;;;;;;;13.73;2.88;;;11.80;99.90;;;;;;5097668;28;20024;-89
2024/04/05 04:31:29;;;;;;;7.93;0.60;;;11.40;99.90;;;;;;5097395;28;20030;-89
2024/04/05 04:33:54;;;;;;;16.45;1.27;;;11.40;99.90;;;;;;5098375;28;20040;-89
2024/04/05 04:36:21;;;;;;;10.15;1.35;;;11.40;99.90;;;;;;5097389;28;20071;-88
2024/04/05 04:38:47;;;;;;;17.05;1.25;;;;;;;;;;5096574;28;20484;-89
2024/04/05 04:41:14;;;;;;;17.15;1.73;;;11.40;99.90;;;;;;5083443;28;20029;-89
2024/04/05 04:43:43;;;;;;;10.55;1.13;;;11.40;99.90;;;;;;5076522;28;20013;-91
2024/04/05 04:46:12;;;;;;;10.98;1.55;;;11.40;99.90;;;;;;5075641;28;20397;-88
2024/04/05 04:48:38;;;;;;;12.88;1.55;;;11.30;99.90;;;;;;5074935;28;20034;-89
2024/04/05 04:51:05;;;;;;;17.73;1.45;;;;;;;;;;5075059;28;20031;-90
2024/04/05 04:53:31;;;;;;;12.40;0.82;;;;;;;;;;5074252;28;20025;-90
2024/04/05 04:55:56;;;;;;;18.25;1.50;;;11.30;99.90;;;;;;5074573;28;20041;-90
2024/04/05 04:58:28;;;;;;;18.52;2.28;;;11.30;99.90;;;;;;5063391;28;20021;-87
2024/04/05 05:00:55;;;;;;;7.75;0.65;;;11.30;99.90;;;;;;5034350;28;20017;-89
2024/04/05 05:03:21;;;;;;;22.17;1.90;;;11.30;99.90;;;;;;5034772;28;20044;-89
2024/04/05 05:05:47;;;;;;;8.20;1.05;;;11.20;99.90;;;;;;5034321;28;20354;-90
2024/04/05 05:08:13;;;;;;;11.95;0.90;;;;;;;;;;5033711;28;20021;-89
2024/04/05 05:10:40;;;;;;;10.77;1.70;;;11.20;99.90;;;;;;5033583;28;20030;-88
2024/04/05 05:13:06;;;;;;;8.68;1.40;;;11.20;99.90;;;;;;5033709;28;20022;-89
2024/04/05 05:15:32;;;;;;;10.85;1.23;;;11.20;99.90;;;;;;5033923;28;20025;-89
2024/04/05 05:17:58;;;;;;;8.30;0.77;;;;;;;;;;5033892;28;20021;-88
2024/04/05 05:20:26;;;;;;;15.10;1.85;;;;;;;;;;5035443;28;20030;-87
2024/04/05 05:22:56;;;;;;;20.75;2.03;;;11.20;99.90;;;;;;5033443;28;20018;-89
2024/04/05 05:25:22;;;;;;;13.20;1.40;;;;;;;;;;5033950;28;20156;-89
2024/04/05 05:28:09;;;;;;;12.35;1.00;;;11.20;99.90;;;;;;5034261;28;20100;-91
2024/04/05 05:30:35;;;;;;;17.00;1.38;;;;;;;;;;5031611;28;20052;-89
2024/04/05 05:33:01;;;;;;;14.73;1.23;;;;;;;;;;5034814;28;20446;-91
2024/04/05 05:35:27;;;;;;;12.07;1.58;;;;;;;;;;5034488;28;20071;-89
2024/04/05 05:37:53;;;;;;;14.07;1.50;;;;;;;;;;5033352;28;20018;-91
2024/04/05 05:40:19;;;;;;;12.30;1.20;;;;;;;;;;5034072;28;20507;-90
2024/04/05 05:42:45;;;;;;;11.73;0.93;;;;;;;;;;5033279;28;20029;-89
2024/04/05 05:45:10;;;;;;;9.52;0.68;;;11.40;99.90;;;;;;5034071;28;20026;-89
2024/04/05 05:47:36;;;;;;;15.57;1.42;;;11.40;99.90;;;;;;5034287;28;20396;-89
2024/04/05 05:50:02;;;;;;;10.63;0.85;;;11.40;99.90;;;;;;5035020;28;20025;-90
2024/04/05 05:52:27;;;;;;;15.98;2.90;;;11.40;99.90;;;;;;5033787;28;20509;-90
2024/04/05 05:54:53;;;;;;;17.48;2.85;;;11.40;99.90;;;;;;5033141;28;20515;-91
2024/04/05 05:57:19;;;;;;;7.63;0.40;;;;;;;;;;5034052;28;20018;-89
2024/04/05 05:59:45;;;;;;;13.85;1.70;;;;;;;;;;5035857;28;20124;-89
2024/04/05 06:02:11;;;;;;;12.70;0.80;;;;;;;;;;5038125;28;20030;-90
2024/04/05 06:04:37;;;;;;;13.93;0.93;;;11.60;99.90;;;;;;5036719;28;20039;-88
2024/04/05 06:07:04;;;;;;;11.07;0.60;;;;;;;;;;5033519;28;20389;-88
2024/04/05 06:09:31;;;;;;;9.50;0.68;;;;;;;;;;5034486;28;20037;-89
2024/04/05 06:11:58;;;;;;;5.80;1.13;;;;;;;;;;5033892;28;20029;-91
2024/04/05 06:14:24;;;;;;;17.00;0.88;;;;;;;;;;5036564;28;20025;-91
2024/04/05 06:16:50;;;;;;;17.65;1.25;;;;;;;;;;5037807;28;20079;-90
2024/04/05 06:19:15;;;;;;;9.55;0.90;;;12.10;99.90;;;;;;5037249;28;20437;-89
2024/04/05 06:21:41;;;;;;;9.65;1.05;;;12.30;99.90;;;;;;5037345;28;20053;-89
2024/04/05 06:24:07;;;;;;;11.32;1.95;;;12.10;99.90;;;;;;5036557;28;20470;-89
2024/04/05 06:26:35;;;;;;;18.20;1.35;;;12.20;99.90;;;;;;5037411;28;20037;-89
2024/04/05 06:29:04;;;;;;;9.10;0.35;;;12.20;99.90;;;;;;5037491;28;20493;-89
2024/04/05 06:31:29;;;;;;;7.03;1.42;;;12.20;99.90;;;;;;5038492;28;20017;-89
2024/04/05 06:33:55;;;;;;;11.85;1.25;;;12.30;99.90;;;;;;5037626;28;20036;-89
2024/04/05 06:36:21;;;;;;;12.48;1.67;;;12.30;99.90;;;;;;5037972;28;20036;-89
2024/04/05 06:38:47;;;;;;;6.68;0.70;;;12.40;99.90;;;;;;5051115;28;20013;-89
2024/04/05 06:41:13;;;;;;;12.80;0.85;;;;;;;;;;5060310;28;20036;-88
2024/04/05 06:43:39;;;;;;;12.50;0.70;;;;;;;;;;5060839;28;20089;-88
2024/04/05 06:46:05;;;;;;;13.15;1.58;;;;;;;;;;5061055;28;20010;-88
2024/04/05 06:48:31;;;;;;;12.35;0.70;;;12.60;99.90;;;;;;5060541;28;20018;-88
2024/04/05 06:50:58;;;;;;;13.35;0.88;;;;;;;;;;5060502;28;20029;-89
2024/04/05 06:53:30;;;;;;;10.60;1.95;;;;;;;;;;5052845;28;20026;-90
2024/04/05 06:55:56;;;;;;;9.68;1.08;;;;;;;;;;5046947;28;20030;-90
2024/04/05 06:58:22;;;;;;;7.70;0.93;;;;;;;;;;5041705;28;20489;-89
2024/04/05 07:00:49;;;;;;;9.30;0.70;;;13.10;99.90;;;;;;5041053;28;20060;-90
2024/04/05 07:03:15;;;;;;;9.18;1.20;;;;;;;;;;5039073;28;20014;-90
2024/04/05 07:05:41;;;;;;;6.82;1.00;;;13.20;99.90;;;;;;5038690;28;20025;-90
2024/04/05 07:08:08;;;;;;;8.23;1.05;;;13.20;99.90;;;;;;5042545;28;20017;-89
2024/04/05 07:10:34;;;;;;;9.95;0.90;;;;;;;;;;5047090;28;20025;-88
2024/04/05 07:13:00;;;;;;;11.80;1.35;;;;;;;;;;5053984;28;20013;-89
2024/04/05 07:15:26;;;;;;;8.02;1.55;;;13.40;99.90;;;;;;5051762;28;20036;-89
2024/04/05 07:17:54;;;;;;;9.70;0.47;;;13.70;99.90;;;;;;5059168;28;20098;-89
2024/04/05 07:20:20;;;;;;;5.85;0.32;;;;;;;;;;5059474;28;20056;-90
2024/04/05 07:22:46;;;;;;;9.57;0.63;;;;;;;;;;5052247;28;20029;-92
2024/04/05 07:25:13;;;;;;;8.77;0.75;;;;;;;;;;5037410;28;20091;-91
2024/04/05 07:27:39;;;;;;;5.38;0.17;;;;;;;;;;5039550;28;20029;-88
2024/04/05 07:30:06;;;;;;;3.78;0.68;;;;;;;;;;5036601;28;20386;-89
2024/04/05 07:32:32;;;;;;;6.15;0.35;;;13.80;99.90;;;;;;5036599;28;20127;-88
2024/04/05 07:34:58;;;;;;;6.03;0.50;;;13.80;99.90;;;;;;5036283;28;20026;-91
2024/04/05 07:37:23;;;;;;;6.40;0.65;;;13.80;99.90;;;;;;5036299;28;20009;-89
2024/04/05 07:39:55;;;;;;;9.95;1.02;;;13.80;99.90;;;;;;5036250;28;20605;-89
2024/04/05 07:42:21;;;;;;;8.25;1.20;;;13.70;99.90;;;;;;5036418;28;20044;-89
2024/04/05 07:44:53;;;;;;;7.35;0.80;;;13.60;99.90;;;;;;5035769;28;20026;-89
2024/04/05 07:47:18;;;;;;;5.57;0.68;;;13.60;99.90;;;;;;5035503;28;20025;-88
2024/04/05 07:49:44;;;;;;;6.03;0.47;;;13.60;99.90;;;;;;5035389;28;20490;-90
2024/04/05 07:52:16;;;;;;;9.05;0.52;;;13.50;99.90;;;;;;5035945;28;20036;-88
2024/04/05 07:54:43;;;;;;;6.95;0.77;;;13.30;99.90;;;;;;5035247;28;20033;-88
2024/04/05 07:57:09;;;;;;;5.78;0.75;;;;;;;;;;5035682;28;20030;-89
2024/04/05 07:59:36;;;;;;;13.10;1.15;;;13.40;99.90;;;;;;5041914;28;20093;-91
2024/04/05 08:02:02;;;;;;;8.20;0.47;;;;;;;;;;5037552;28;20197;-90
2024/04/05 08:04:30;;;;;;;9.18;0.63;;;13.30;99.90;;;;;;5034943;28;20093;-89
2024/04/05 08:06:58;;;;;;;11.80;0.82;;;;;;;;;;5034646;28;20051;-89
2024/04/05 08:09:24;;;;;;;4.88;0.47;;;13.30;99.90;;;;;;5036666;28;20026;-91
2024/04/05 08:11:50;;;;;;;7.95;1.38;;;;;;;;;;5034875;28;20018;-90
2024/04/05 08:14:16;;;;;;;4.82;1.08;;;;;;;;;;5035567;28;20025;-89
2024/04/05 08:16:42;;;;;;;8.77;0.38;;;;;;;;;;5034837;28;20028;-88
2024/04/05 08:19:08;;;;;;;10.43;0.55;;;13.30;99.90;;;;;;5034690;28;20029;-88
2024/04/05 08:21:33;;;;;;;5.95;0.30;;;13.30;99.90;;;;;;5034555;28;20026;-90
2024/04/05 08:23:59;;;;;;;13.60;0.93;;;13.30;99.90;;;;;;5034094;28;20392;-89
2024/04/05 08:26:25;;;;;;;5.10;0.65;;;13.30;99.90;;;;;;5034159;28;20013;-90
2024/04/05 08:28:52;;;;;;;6.55;0.65;;;13.20;99.90;;;;;;5034101;28;20060;-90
2024/04/05 08:31:18;;;;;;;6.75;0.55;;;13.50;99.90;;;;;;5034277;28;20041;-90
2024/04/05 08:33:44;;;;;;;6.90;0.57;;;;;;;;;;5034116;28;20176;-91
2024/04/05 08:36:10;;;;;;;10.35;1.33;;;;;;;;;;5033714;28;20036;-90
2024/04/05 08:38:36;;;;;;;9.02;1.55;;;;;;;;;;5033798;28;20032;-88
2024/04/05 08:41:11;;;;;;;7.00;0.88;;;13.20;99.90;;;;;;5033983;28;20028;-91
2024/04/05 08:43:40;;;;;;;7.82;0.45;;;13.20;99.90;;;;;;5035691;28;20030;-89
2024/04/05 08:46:07;;;;;;;4.97;0.20;;;13.20;99.90;;;;;;5034713;28;20026;-91
2024/04/05 08:48:36;;;;;;;7.50;1.30;;;13.30;99.90;;;;;;5035385;28;20510;-89
2024/04/05 08:51:09;;;;;;;3.10;0.55;;;13.30;99.90;;;;;;5035260;28;20095;-88
2024/04/05 08:53:35;;;;;;;7.10;0.85;;;;;;;;;;5036677;28;20021;-87
2024/04/05 08:56:04;;;;;;;8.02;1.23;;;13.30;99.90;;;;;;5034673;28;20036;-89
2024/04/05 08:58:30;;;;;;;5.82;0.80;;;13.30;99.90;;;;;;5034159;28;20386;-89
2024/04/05 09:00:56;;;;;;;5.80;1.08;;;;;;;;;;5033406;28;20018;-89
2024/04/05 09:03:22;;;;;;;7.18;0.63;;;;;;;;;;5033735;28;20080;-89
2024/04/05 09:05:50;;;;;;;5.35;0.30;;;13.40;99.90;;;;;;5033546;28;20029;-88
2024/04/05 09:08:16;;;;;;;8.18;0.57;;;;;;;;;;5033352;28;20400;-89
2024/04/05 09:10:50;;;;;;;3.20;0.20;;;;;;;;;;5033598;28;20511;-90
2024/04/05 09:13:20;;;;;;;4.35;0.17;;;13.50;99.90;;;;;;5033477;28;20051;-88
2024/04/05 09:15:52;;;;;;;2.30;0.00;;;13.50;99.90;;;;;;5034826;28;20049;-89
2024/04/05 09:18:28;;;;;;;4.13;0.20;;;13.40;99.90;;;;;;5033419;28;20105;-89
2024/04/05 09:20:55;;;;;;;5.70;0.20;;;13.50;99.90;;;;;;5033456;28;20025;-87
2024/04/05 09:23:21;;;;;;;8.35;0.75;;;13.70;99.90;;;;;;5033960;28;20413;-89
2024/04/05 09:26:00;;;;;;;8.15;1.25;;;13.60;99.90;;;;;;5033411;28;20033;-88
2024/04/05 09:28:29;;;;;;;;;;;13.60;99.90;;;;;;5035098;28;20025;-86
2024/04/05 09:30:59;;;;;;;2.58;0.40;;;13.60;99.90;;;;;;5033729;28;20266;-87
2024/04/05 09:33:25;;;;;;;4.03;0.43;;;;;;;;;;5034368;28;20430;-86
2024/04/05 09:35:53;;;;;;;1.88;0.10;;;13.70;99.90;;;;;;5036290;28;20100;-87
2024/04/05 09:38:19;;;;;;;1.23;0.00;;;13.70;99.90;;;;;;5035948;28;20022;-88
2024/04/05 09:40:48;;;;;;;5.50;0.63;;;13.70;99.90;;;;;;5034551;28;20488;-87
2024/04/05 09:43:15;;;;;;;2.25;0.22;;;13.70;99.90;;;;;;5035351;28;20026;-89
2024/04/05 09:45:43;;;;;;;2.45;0.00;;;13.80;99.90;;;;;;5043583;28;20022;-89
2024/04/05 09:48:10;;;;;;;2.72;0.38;;;13.80;99.90;;;;;;5059969;28;20024;-88
2024/04/05 09:50:36;;;;;;;1.90;0.00;;;;;;;;;;5061637;28;20015;-91
2024/04/05 09:53:04;;;;;;;2.67;0.10;;;13.90;99.90;;;;;;5062064;28;20021;-90
2024/04/05 09:55:38;;;;;;;2.00;0.38;;;14.10;99.90;;;;;;5061649;28;20030;-89
2024/04/05 09:58:06;;;;;;;2.90;0.20;;;14.10;99.90;;;;;;5061729;28;20014;-88
2024/04/05 10:00:32;;;;;;;6.10;0.00;;;14.20;99.90;;;;;;5062084;28;20028;-89
2024/04/05 10:02:59;;;;;;;5.45;0.30;;;14.40;99.90;;;;;;5060424;28;20021;-90
2024/04/05 10:05:29;;;;;;;4.78;0.20;;;14.50;99.90;;;;;;5041499;28;20028;-88
2024/04/05 10:07:56;;;;;;;5.53;0.57;;;14.60;99.90;;;;;;5039532;28;20026;-87
2024/04/05 10:10:32;;;;;;;7.75;0.10;;;14.60;99.90;;;;;;5039235;28;20095;-87
2024/04/05 10:13:18;;;;;;;1.45;0.45;;;14.60;99.90;;;;;;5038577;28;20087;-90
2024/04/05 10:15:55;;;;;;;1.55;0.00;;;14.60;99.90;;;;;;5038167;28;20029;-88
2024/04/05 10:18:34;;;;;;;6.18;0.47;;;14.60;99.90;;;;;;5037473;28;20029;-88
2024/04/05 10:21:12;;;;;;;2.15;0.10;;;14.60;99.90;;;;;;5037538;28;20111;-88
2024/04/05 10:23:39;;;;;;;2.77;0.23;;;14.60;99.90;;;;;;5038051;28;20018;-90
2024/04/05 10:26:13;;;;;;;16.42;1.35;;;14.70;99.90;;;;;;5040690;28;20029;-87
2024/04/05 10:28:43;;;;;;;3.15;0.20;;;;;;;;;;5037796;28;20021;-89
2024/04/05 10:31:12;;;;;;;2.47;0.00;;;;;;;;;;5039605;28;20021;-89
2024/04/05 10:33:38;;;;;;;1.67;0.00;;;;;;;;;;5040427;28;20040;-88
2024/04/05 10:36:05;;;;;;;1.33;0.00;;;14.80;99.90;;;;;;5038263;28;20470;-89
2024/04/05 10:38:33;;;;;;;4.10;0.70;;;15.10;99.90;;;;;;5038141;28;20020;-87
2024/04/05 10:41:00;;;;;;;2.72;0.20;;;15.20;99.90;;;;;;5037711;28;20021;-88
2024/04/05 10:43:26;;;;;;;2.05;0.10;;;;;;;;;;5037925;28;20018;-88
2024/04/05 10:45:54;;;;;;;2.85;0.00;;;15.30;99.90;;;;;;5037784;28;20032;-88
2024/04/05 10:48:21;;;;;;;0.80;0.00;;;15.70;99.90;;;;;;5037614;28;20021;-87
2024/04/05 10:50:55;;;;;;;4.55;0.65;;;;;;;;;;5038524;28;20035;-89
2024/04/05 10:53:21;;;;;;;2.70;0.35;;;16.00;99.90;;;;;;5037039;28;20030;-88
2024/04/05 10:55:51;;;;;;;3.55;0.00;;;16.00;99.90;;;;;;5037355;28;20036;-88
2024/04/05 10:58:17;;;;;;;1.90;0.00;;;;;;;;;;5040187;28;20025;-89
2024/04/05 11:00:44;;;;;;;1.55;0.10;;;;;;;;;;5077545;28;20040;-89
2024/04/05 11:03:13;;;;;;;2.38;0.40;;;15.80;99.90;;;;;;5079752;28;20024;-87
2024/04/05 11:05:39;;;;;;;2.38;0.15;;;;;;;;;;5077423;28;20036;-89
2024/04/05 11:08:06;;;;;;;3.15;0.00;;;15.60;99.90;;;;;;5076178;28;20127;-89
2024/04/05 11:10:36;;;;;;;2.33;0.00;;;15.50;99.90;;;;;;5078028;28;20112;-88
2024/04/05 11:13:15;;;;;;;1.75;0.32;;;15.40;99.90;;;;;;5086709;28;20028;-88
2024/04/05 11:15:41;;;;;;;3.20;0.75;;;;;;;;;;5080531;28;20058;-90
2024/04/05 11:18:08;;;;;;;1.92;0.00;;;;;;;;;;5080587;28;20025;-88
2024/04/05 11:20:39;;;;;;;2.03;0.55;;;;;;;;;;5078605;28;20503;-89
2024/04/05 11:23:07;;;;;;;4.15;0.00;;;15.20;99.90;;;;;;5085875;28;20020;-89
2024/04/05 11:25:35;;;;;;;2.75;0.00;;;15.10;99.90;;;;;;5076921;28;20029;-91
2024/04/05 11:28:19;;;;;;;1.98;0.00;;;15.10;99.90;;;;;;5077654;28;20084;-89
2024/04/05 11:30:46;;;;;;;1.30;0.20;;;;;;;;;;5079377;28;20035;-89
2024/04/05 11:33:11;;;;;;;3.28;0.00;;;15.10;99.90;;;;;;5077561;28;20123;-87
2024/04/05 11:35:37;;;;;;;1.27;0.00;;;;;;;;;;5077896;28;20060;-91
2024/04/05 11:38:07;;;;;;;2.72;0.20;;;;;;;;;;5081807;28;20052;-91
2024/04/05 11:40:33;;;;;;;0.68;0.00;;;14.90;99.90;;;;;;5081985;28;20024;-91
2024/04/05 11:43:01;;;;;;;1.40;0.00;;;;;;;;;;5077760;28;20051;-91
2024/04/05 11:45:27;;;;;;;3.22;0.10;;;;;;;;;;5077221;28;20031;-90
2024/04/05 11:47:54;;;;;;;2.00;0.00;;;;;;;;;;5080117;28;20031;-90
2024/04/05 11:50:20;;;;;;;2.08;0.00;;;;;;;;;;5096464;28;20060;-91
2024/04/05 11:52:47;;;;;;;4.30;0.20;;;;;;;;;;5095851;28;20078;-91
2024/04/05 11:55:13;;;;;;;1.70;0.00;;;;;;;;;;5096568;28;20040;-89
2024/04/05 11:57:39;;;;;;;2.50;0.52;;;;;;;;;;5097238;28;20052;-90
2024/04/05 12:00:12;;;;;;;1.60;0.03;;;;;;;;;;5088650;28;20024;-92
2024/04/05 12:02:39;;;;;;;3.63;0.28;;;;;;;;;;5076617;28;20048;-89
2024/04/05 12:05:06;;;;;;;1.88;0.00;;;;;;;;;;5077149;28;20563;-93
2024/04/05 12:07:38;;;;;;;2.45;0.00;;;;;;;;;;5076319;28;20029;-93
2024/04/05 12:10:05;;;;;;;1.67;0.10;;;;;;;;;;5078044;28;20082;-91
2024/04/05 12:12:31;;;;;;;3.45;0.00;;;;;;;;;;5075433;28;20028;-90
2024/04/05 12:14:58;;;;;;;5.15;0.10;;;14.80;99.90;;;;;;5060623;28;20418;-89
2024/04/05 12:17:24;;;;;;;3.00;0.00;;;14.90;99.90;;;;;;5056007;28;20377;-92
2024/04/05 12:19:50;;;;;;;2.83;0.10;;;;;;;;;;5057319;28;20021;-93
2024/04/05 12:22:16;;;;;;;6.10;1.17;;;;;;;;;;5058982;28;20096;-91
2024/04/05 12:24:49;;;;;;;2.30;0.30;;;15.10;99.90;;;;;;5056462;28;20029;-89
2024/04/05 12:27:21;;;;;;;2.33;0.20;;;;;;;;;;5058165;28;20136;-91
2024/04/05 12:29:47;;;;;;;3.28;0.17;;;;;;;;;;5074172;28;20020;-91
2024/04/05 12:32:16;;;;;;;2.13;0.10;;;;;;;;;;5075611;28;20044;-93
2024/04/05 12:34:43;;;;;;;3.33;0.10;;;;;;;;;;5071925;28;20021;-91
2024/04/05 12:37:09;;;;;;;4.32;0.32;;;;;;;;;;5065765;28;20021;-91
2024/04/05 12:39:36;;;;;;;8.15;0.10;;;16.40;99.90;;;;;;5059365;28;20074;-92
2024/04/05 12:42:06;;;;;;;3.45;0.28;;;;;;;;;;5055868;28;20025;-91
2024/04/05 12:44:34;;;;;;;3.70;0.43;;;;;;;;;;5055685;28;20029;-90
2024/04/05 12:47:00;;;;;;;2.53;0.30;;;;;;;;;;5056740;28;20017;-89
2024/04/05 12:49:35;;;;;;;3.65;0.00;;;;;;;;;;5065280;28;20100;-92
2024/04/05 12:52:01;;;;;;;5.38;0.75;;;;;;;;;;5077844;28;20020;-89
2024/04/05 12:54:27;;;;;;;1.83;0.00;;;;;;;;;;5077753;28;20029;-89
2024/04/05 12:56:56;;;;;;;2.05;0.10;;;;;;;;;;5077712;28;20093;-92
2024/04/05 12:59:25;;;;;;;0.73;0.00;;;;;;;;;;5077398;28;20023;-94
2024/04/05 13:01:51;;;;;;;0.85;0.10;;;;;;;;;;5077766;28;20017;-91
2024/04/05 13:04:19;;;;;;;1.73;0.03;;;;;;;;;;5078009;28;20029;-90
2024/04/05 13:06:45;;;;;;;6.00;0.00;;;;;;;;;;5077908;28;20032;-90
2024/04/05 13:09:14;;;;;;;3.50;0.00;;;;;;;;;;5078233;28;20019;-90
2024/04/05 13:11:40;;;;;;;1.77;0.30;;;18.00;99.90;;;;;;5076070;28;20025;-90
2024/04/05 13:14:09;;;;;;;2.58;0.40;;;;;;;;;;5060541;28;20021;-90
2024/04/05 13:16:36;;;;;;;4.25;0.00;;;18.00;99.90;;;;;;5056510;28;20392;-91
2024/04/05 13:19:02;;;;;;;3.65;0.40;;;17.90;99.90;;;;;;5056006;28;20021;-91